Weather observations for the past three days for
Copper Harbor
Imperial (Metric)
Date Time (edt) Wind (mph) Vis. (mi.) Weather Sky Cond. Temperature (ºF) Relative Humidity Wind Chill (°F) Heat Index (°F) Pressure Precipitation (in)
Air Dwpt 6 hour altimeter (in) sea level (mb) 1 hr 3 hr 6 hr
Max. Min.
04 15:51 NW 20 G 40 0.00 NULL NULL 53.1 34 48% 29.3 992.3
04 14:51 NW 16 G 46 0.00 NULL NULL 53.1 37 55% 29.28 991.6
04 13:51 NW 13 G 32 0.00 NULL NULL 54 39.9 55.9 46 59% 29.25 990.7 0.05
04 12:51 NW 12 G 38 0.00 NULL NULL 53.1 42.1 66% 29.24 990.1
04 11:51 Vrbl 7 0.00 NULL NULL 46.9 43 86% 44 29.22 989.7 0.03
04 10:51 NW 12 G 28 0.00 NULL NULL 46 43 89% 41 29.23 989.9 0.01 0.02
04 09:51 NW 15 G 29 0.00 NULL NULL 55 35.1 47% 29.18 988.1
04 08:51 SW 8 0.00 NULL NULL 50 34 54% 47 29.18 988.0 0.01
04 07:51 W 12 G 23 0.00 NULL NULL 52 28 52 46 40% 29.2 988.9
04 06:51 SW 13 G 25 0.00 NULL NULL 50 26.1 39% 46 29.23 989.7
04 05:51 SW 10 G 23 0.00 NULL NULL 48.9 25 39% 45 29.27 991.1
04 04:51 SW 13 G 21 0.00 NULL NULL 48.9 24.1 38% 44 29.32 992.7
04 03:51 SW 10 G 20 0.00 NULL NULL 48.9 21.9 35% 45 29.36 994.5
04 02:51 SW 12 G 21 0.00 NULL NULL 48.9 19.9 32% 45 29.4 995.5
04 01:51 SW 9 0.00 NULL NULL 46 23 57.9 46 40% 42 29.43 997.0
04 00:51 Vrbl 3 0.00 NULL NULL 46.9 21 36% 29.46 998.1
03 23:51 W 6 0.00 NULL NULL 52 19 27% 29.5 999.3
03 22:51 W 7 0.00 NULL NULL 52 21 30% 29.52 1000.0
03 21:51 W 7 0.00 NULL NULL 53.1 19 26% 29.53 1000.0
03 20:51 W 8 0.00 NULL NULL 55.9 17.1 22% 29.53 1000.2
03 19:51 NW 8 0.00 NULL NULL 57.9 19.9 59 45 23% 29.54 1000.3
03 18:51 N 13 G 28 0.00 NULL NULL 57.9 23 26% 29.54 1000.5
03 17:51 N 8 G 22 0.00 NULL NULL 50 30.9 48% 47 29.54 1000.5
03 16:51 NW 9 G 23 0.00 NULL NULL 57.9 37.9 48% 29.53 1000.3
03 15:51 N 12 G 26 0.00 NULL NULL 52 39.9 64% 29.54 1000.6
03 14:51 N 12 0.00 NULL NULL 51.1 41 69% 29.56 1001.3
03 13:51 N 18 0.00 NULL NULL 46.9 37.9 52 42.1 71% 40 29.56 1001.5
03 12:51 N 10 0.00 NULL NULL 46 37 71% 42 29.57 1001.7
03 11:51 N 5 0.00 NULL NULL 45 37 74% 43 29.58 1002.4
03 10:51 Calm 0.00 NULL NULL 44.1 36 73% 29.59 1002.4
03 09:51 Vrbl 3 0.00 NULL NULL 48.9 30 48% 29.61 1003.0
03 08:51 Calm 0.00 NULL NULL 45 27 49% 29.62 1003.7
03 07:51 SW 9 0.00 NULL NULL 43 27 43 39 53% 38 29.63 1004.0
03 06:51 SW 12 0.00 NULL NULL 39 27 62% 32 29.64 1004.3
03 05:51 SW 8 G 17 0.00 NULL NULL 42.1 26.1 53% 38 29.66 1004.9
03 04:51 Vrbl 3 0.00 NULL NULL 42.1 26.1 53% 29.68 1005.7
03 03:51 Vrbl 5 0.00 NULL NULL 43 26.1 51% 41 29.7 1006.4
03 02:51 Vrbl 5 0.00 NULL NULL 43 25 49% 41 29.73 1007.4
03 01:51 W 10 G 20 0.00 NULL NULL 42.1 26.1 43 39 53% 37 29.76 1008.4
03 00:51 SW 13 G 23 0.00 NULL NULL 43 21.9 43% 37 29.76 1008.4
02 23:51 SW 10 G 20 0.00 NULL NULL 41 21 45% 35 29.78 1009.1
02 22:51 SW 10 G 18 0.00 NULL NULL 39.9 21 47% 34 29.82 1010.5
02 21:51 SW 10 G 21 0.00 NULL NULL 39 21 48% 33 29.84 1011.3
02 20:51 SW 12 G 21 0.00 NULL NULL 39.9 19.9 45% 34 29.84 1011.3
02 19:51 SW 9 G 18 0.00 NULL NULL 43 19 46.9 39 38% 38 29.86 1011.9
02 18:51 SW 10 G 18 0.00 NULL NULL 44.1 19 37% 39 29.88 1012.7
02 17:51 W 7 0.00 NULL NULL 45 19.9 37% 42 29.9 1013.0
02 16:51 E 3 0.00 NULL NULL 41 30 65% 29.91 1013.8
02 15:51 E 5 0.00 NULL NULL 43 27 53% 41 29.94 1014.6
02 14:51 E 6 0.00 NULL NULL 41 28 60% 38 29.96 1015.5
02 13:51 E 5 0.00 NULL NULL 41 28.9 42.1 36 62% 38 29.98 1016.0
02 12:51 NE 8 0.00 NULL NULL 39 30.9 73% 34 29.99 1016.4
02 11:51 NE 5 0.00 NULL NULL 41 30.9 67% 38 30 1016.7
02 10:51 NE 7 0.00 NULL NULL 39.9 28 63% 36 30.01 1017.2
02 09:51 N 8 0.00 NULL NULL 37.9 27 65% 33 30.03 1017.7
02 08:51 N 8 0.00 NULL NULL 39 24.1 55% 34 30.03 1017.8
02 07:51 Calm 0.00 NULL NULL 36 21 36 30.9 55% 30.04 1018.1
02 06:51 W 5 0.00 NULL NULL 32 19.9 61% 28 30.04 1018.0
02 05:51 Vrbl 6 0.00 NULL NULL 34 18 52% 29 30.03 1018.0
02 04:51 Vrbl 7 0.00 NULL NULL 34 19 54% 29 30.03 1017.7
02 03:51 NW 6 0.00 NULL NULL 34 19 54% 29 30.03 1018.0
02 02:51 NW 5 0.00 NULL NULL 34 19 54% 30 30.04 1018.1
02 01:51 NW 8 0.00 NULL NULL 34 19 39 34 54% 28 30.05 1018.6
02 00:51 NW 5 0.00 NULL NULL 34 17.1 50% 30 30.05 1018.7
01 23:51 NW 6 0.00 NULL NULL 35.1 18 50% 31 30.06 1018.9
01 22:51 Vrbl 6 0.00 NULL NULL 35.1 18 50% 31 30.06 1019.0
01 21:51 NW 6 0.00 NULL NULL 35.1 18 50% 31 30.06 1019.0
01 20:51 N 9 G 17 0.00 NULL NULL 37 19.9 50% 31 30.06 1018.9
01 19:51 N 13 G 22 0.00 NULL NULL 39 23 39.9 37 53% 32 30.05 1018.6
01 18:51 N 14 0.00 NULL NULL 39.9 24.1 53% 33 30.06 1018.7
01 17:51 N 16 0.00 NULL NULL 39.9 25 55% 32 30.06 1018.6
01 16:51 N 12 0.00 NULL NULL 39 24.1 55% 32 30.06 1018.8
Date Time (edt) Wind (mph) Vis. (mi.) Weather Sky Cond. Air Dwpt Max. Min. Relative Humidity Wind Chill (°F) Heat Index (°F) altimeter (in) sea level (mb) 1 hr 3 hr 6 hr
6 hour
Temperature (ºF) Pressure Precipitation (in)